Check out our new PWSWeather beta!
PWSweather.com
Personal Weather Stations
Station Observations

SkegnessGB

Lat: 53.147585, Lon: 0.345774

Elevation: 18

Station Type: Fine Offset WH3080

http://www.skegnessweather.info/

High Low Average
Temperature 45.5°F7.5°C 43.5°F6.4°C 44.6°F7.0°C
Dew Point 41.8°F5.4°C 38.3°F3.5°C 39.9°F4.4°C
Winds 11.9 mph 19.2 kmh Calm Calm 4.0 mph SE6.4 kmh SE
Wind Gusts 12.5 mph20.1 kmh 0.7 mph1.1 kmh 5.0 mph8.0 kmh
Humidity 91% 77% 83%
Pressure 30.51 in1033.2 mb 30.07 in1018.3 mb -
Precipitation 0.01 in0.3 mm - -
Hour Temp Dew Point Humidity Winds Wind Gusts Pressure Precip Precip Rate Daily Precip Total
12:00 AM 44.2°F6.8°C 41.8°F5.4°C 91% 4.7 mph NE7.6 kmh NE 6.6 mph10.6 kmh 30.07 in1018.3 mb 0.00 in0.0 mm 0.00 in0.0 mm 0.00 in0.0 mm
12:10 AM 44.2°F6.8°C 41.8°F5.4°C 91% 4.3 mph NNE6.9 kmh NNE 4.9 mph7.9 kmh 30.07 in1018.3 mb 0.00 in0.0 mm 0.00 in0.0 mm 0.00 in0.0 mm
12:20 AM 44.2°F6.8°C 41.8°F5.4°C 91% 4.6 mph N7.4 kmh N 6.6 mph10.6 kmh 30.08 in1018.6 mb 0.00 in0.0 mm 0.00 in0.0 mm 0.00 in0.0 mm
12:30 AM 44.2°F6.8°C 41.8°F5.4°C 91% 4.3 mph NE6.9 kmh NE 5.9 mph9.5 kmh 30.09 in1019.0 mb 0.00 in0.0 mm 0.00 in0.0 mm 0.00 in0.0 mm
12:40 AM 44.2°F6.8°C 41.8°F5.4°C 91% 4.2 mph NNE6.8 kmh NNE 5.9 mph9.5 kmh 30.09 in1019.0 mb 0.00 in0.0 mm 0.00 in0.0 mm 0.00 in0.0 mm
12:50 AM 44.2°F6.8°C 41.5°F5.3°C 90% 4.4 mph NNE7.1 kmh NNE 4.2 mph6.8 kmh 30.10 in1019.3 mb 0.00 in0.0 mm 0.00 in0.0 mm 0.00 in0.0 mm
01:00 AM 44.2°F6.8°C 41.5°F5.3°C 90% 4.0 mph NE6.4 kmh NE 4.2 mph6.8 kmh 30.11 in1019.6 mb 0.00 in0.0 mm 0.00 in0.0 mm 0.00 in0.0 mm
01:10 AM 44.2°F6.8°C 41.5°F5.3°C 90% 3.9 mph N6.3 kmh N 5.9 mph9.5 kmh 30.11 in1019.6 mb 0.00 in0.0 mm 0.00 in0.0 mm 0.00 in0.0 mm
01:20 AM 44.2°F6.8°C 41.5°F5.3°C 90% 3.4 mph NE5.5 kmh NE 3.4 mph5.5 kmh 30.11 in1019.6 mb 0.00 in0.0 mm 0.00 in0.0 mm 0.00 in0.0 mm
01:30 AM 44.2°F6.8°C 41.5°F5.3°C 90% 2.0 mph N3.2 kmh N 3.4 mph5.5 kmh 30.12 in1020.0 mb 0.00 in0.0 mm 0.00 in0.0 mm 0.00 in0.0 mm
01:40 AM 44.2°F6.8°C 41.5°F5.3°C 90% 2.1 mph N3.4 kmh N 4.9 mph7.9 kmh 30.13 in1020.3 mb 0.00 in0.0 mm 0.00 in0.0 mm 0.00 in0.0 mm
01:50 AM 44.2°F6.8°C 41.5°F5.3°C 90% 3.7 mph N6.0 kmh N 4.9 mph7.9 kmh 30.13 in1020.3 mb 0.00 in0.0 mm 0.00 in0.0 mm 0.00 in0.0 mm
02:00 AM 44.2°F6.8°C 41.5°F5.3°C 90% 3.3 mph N5.3 kmh N 4.2 mph6.8 kmh 30.14 in1020.7 mb 0.00 in0.0 mm 0.00 in0.0 mm 0.00 in0.0 mm
02:10 AM 44.2°F6.8°C 41.2°F5.1°C 89% 3.6 mph NNE5.8 kmh NNE 6.6 mph10.6 kmh 30.15 in1021.0 mb 0.00 in0.0 mm 0.00 in0.0 mm 0.00 in0.0 mm
02:20 AM 44.4°F6.9°C 41.4°F5.2°C 89% 4.7 mph NNE7.6 kmh NNE 5.9 mph9.5 kmh 30.16 in1021.3 mb 0.00 in0.0 mm 0.00 in0.0 mm 0.00 in0.0 mm
02:30 AM 44.4°F6.9°C 41.1°F5.1°C 88% 4.7 mph NNE7.6 kmh NNE 5.9 mph9.5 kmh 30.16 in1021.3 mb 0.00 in0.0 mm 0.00 in0.0 mm 0.00 in0.0 mm
02:40 AM 44.4°F6.9°C 41.1°F5.1°C 88% 2.8 mph NNE4.5 kmh NNE 4.2 mph6.8 kmh 30.16 in1021.3 mb 0.00 in0.0 mm 0.00 in0.0 mm 0.00 in0.0 mm
02:50 AM 44.4°F6.9°C 40.8°F4.9°C 87% 1.9 mph NE3.1 kmh NE 3.4 mph5.5 kmh 30.17 in1021.7 mb 0.00 in0.0 mm 0.00 in0.0 mm 0.00 in0.0 mm
03:00 AM 44.4°F6.9°C 40.8°F4.9°C 87% 1.6 mph NE2.6 kmh NE 2.5 mph4.0 kmh 30.17 in1021.7 mb 0.00 in0.0 mm 0.00 in0.0 mm 0.00 in0.0 mm
03:10 AM 44.4°F6.9°C 40.8°F4.9°C 87% 2.0 mph NNE3.2 kmh NNE 3.4 mph5.5 kmh 30.18 in1022.0 mb 0.00 in0.0 mm 0.00 in0.0 mm 0.00 in0.0 mm
03:20 AM 44.2°F6.8°C 40.6°F4.8°C 87% 1.9 mph NNE3.1 kmh NNE 2.5 mph4.0 kmh 30.18 in1022.0 mb 0.00 in0.0 mm 0.00 in0.0 mm 0.00 in0.0 mm
03:30 AM 44.2°F6.8°C 40.6°F4.8°C 87% 2.1 mph N3.4 kmh N 3.4 mph5.5 kmh 30.19 in1022.4 mb 0.00 in0.0 mm 0.00 in0.0 mm 0.00 in0.0 mm
03:40 AM 44.4°F6.9°C 40.8°F4.9°C 87% 2.1 mph NNE3.4 kmh NNE 3.4 mph5.5 kmh 30.19 in1022.4 mb 0.00 in0.0 mm 0.00 in0.0 mm 0.00 in0.0 mm
03:50 AM 44.4°F6.9°C 40.8°F4.9°C 87% 1.4 mph WNW2.3 kmh WNW 2.5 mph4.0 kmh 30.20 in1022.7 mb 0.00 in0.0 mm 0.00 in0.0 mm 0.00 in0.0 mm
04:00 AM 44.4°F6.9°C 40.8°F4.9°C 87% 2.1 mph WNW3.4 kmh WNW 3.4 mph5.5 kmh 30.21 in1023.0 mb 0.00 in0.0 mm 0.00 in0.0 mm 0.00 in0.0 mm
04:10 AM 44.4°F6.9°C 40.8°F4.9°C 87% 2.3 mph NNE3.7 kmh NNE 2.5 mph4.0 kmh 30.20 in1022.7 mb 0.00 in0.0 mm 0.00 in0.0 mm 0.00 in0.0 mm
04:20 AM 44.2°F6.8°C 40.6°F4.8°C 87% 2.3 mph NNE3.7 kmh NNE 3.4 mph5.5 kmh 30.21 in1023.0 mb 0.00 in0.0 mm 0.00 in0.0 mm 0.00 in0.0 mm
04:30 AM 44.2°F6.8°C 40.6°F4.8°C 87% 2.4 mph NNE3.9 kmh NNE 3.4 mph5.5 kmh 30.21 in1023.0 mb 0.00 in0.0 mm 0.00 in0.0 mm 0.00 in0.0 mm
04:40 AM 44.2°F6.8°C 40.6°F4.8°C 87% 2.1 mph NNE3.4 kmh NNE 4.2 mph6.8 kmh 30.21 in1023.0 mb 0.00 in0.0 mm 0.00 in0.0 mm 0.00 in0.0 mm
04:50 AM 44.2°F6.8°C 40.6°F4.8°C 87% 0.5 mph N0.8 kmh N 1.7 mph2.7 kmh 30.22 in1023.4 mb 0.00 in0.0 mm 0.00 in0.0 mm 0.00 in0.0 mm
05:00 AM 44.2°F6.8°C 40.6°F4.8°C 87% 1.1 mph N1.8 kmh N 2.5 mph4.0 kmh 30.22 in1023.4 mb 0.00 in0.0 mm 0.00 in0.0 mm 0.00 in0.0 mm
05:10 AM 44.2°F6.8°C 40.6°F4.8°C 87% 0.1 mph NE0.2 kmh NE 1.7 mph2.7 kmh 30.22 in1023.4 mb 0.00 in0.0 mm 0.00 in0.0 mm 0.00 in0.0 mm
05:20 AM 44.2°F6.8°C 40.6°F4.8°C 87% 0.8 mph NE1.3 kmh NE 2.5 mph4.0 kmh 30.22 in1023.4 mb 0.00 in0.0 mm 0.00 in0.0 mm 0.00 in0.0 mm
05:30 AM 44.2°F6.8°C 40.3°F4.6°C 86% 1.2 mph N1.9 kmh N 2.5 mph4.0 kmh 30.23 in1023.7 mb 0.00 in0.0 mm 0.00 in0.0 mm 0.00 in0.0 mm
05:40 AM 44.2°F6.8°C 40.3°F4.6°C 86% 0.8 mph N1.3 kmh N 1.7 mph2.7 kmh 30.23 in1023.7 mb 0.00 in0.0 mm 0.00 in0.0 mm 0.00 in0.0 mm
05:50 AM 44.4°F6.9°C 40.5°F4.7°C 86% 1.5 mph NNE2.4 kmh NNE 2.5 mph4.0 kmh 30.24 in1024.0 mb 0.00 in0.0 mm 0.00 in0.0 mm 0.00 in0.0 mm
06:00 AM 44.4°F6.9°C 40.5°F4.7°C 86% 0.6 mph NNW1.0 kmh NNW 3.4 mph5.5 kmh 30.25 in1024.4 mb 0.00 in0.0 mm 0.00 in0.0 mm 0.00 in0.0 mm
06:10 AM 44.4°F6.9°C 40.5°F4.7°C 86% 0.3 mph N0.5 kmh N 1.7 mph2.7 kmh 30.24 in1024.0 mb 0.00 in0.0 mm 0.00 in0.0 mm 0.00 in0.0 mm
06:20 AM 44.4°F6.9°C 40.5°F4.7°C 86% 0.3 mph N0.5 kmh N 1.7 mph2.7 kmh 30.25 in1024.4 mb 0.00 in0.0 mm 0.00 in0.0 mm 0.00 in0.0 mm
06:30 AM 44.6°F7.0°C 39.1°F3.9°C 81% 2.1 mph N3.4 kmh N 4.9 mph7.9 kmh 30.25 in1024.4 mb 0.01 in0.3 mm 0.06 in1.5 mm 0.01 in0.3 mm
06:40 AM 44.8°F7.1°C 39.3°F4.1°C 81% 2.4 mph NE3.9 kmh NE 4.2 mph6.8 kmh 30.26 in1024.7 mb 0.01 in0.3 mm 0.00 in0.0 mm 0.01 in0.3 mm
06:50 AM 44.8°F7.1°C 39.0°F3.9°C 80% 0.8 mph N1.3 kmh N 3.4 mph5.5 kmh 30.27 in1025.1 mb 0.01 in0.3 mm 0.00 in0.0 mm 0.01 in0.3 mm
07:00 AM 44.6°F7.0°C 38.8°F3.8°C 80% 0.9 mph N1.4 kmh N 2.5 mph4.0 kmh 30.27 in1025.1 mb 0.01 in0.3 mm 0.00 in0.0 mm 0.01 in0.3 mm
07:10 AM 44.6°F7.0°C 38.8°F3.8°C 80% Calm Calm 0.7 mph1.1 kmh 30.27 in1025.1 mb 0.01 in0.3 mm 0.00 in0.0 mm 0.01 in0.3 mm
07:20 AM 44.6°F7.0°C 38.8°F3.8°C 80% Calm Calm 1.7 mph2.7 kmh 30.28 in1025.4 mb 0.01 in0.3 mm 0.00 in0.0 mm 0.01 in0.3 mm
07:30 AM 44.4°F6.9°C 39.9°F4.4°C 84% 0.1 mph N0.2 kmh N 1.7 mph2.7 kmh 30.28 in1025.4 mb 0.00 in0.0 mm 0.00 in0.0 mm 0.01 in0.3 mm
07:40 AM 44.6°F7.0°C 38.8°F3.8°C 80% 0.9 mph SE1.4 kmh SE 3.4 mph5.5 kmh 30.28 in1025.4 mb 0.00 in0.0 mm 0.00 in0.0 mm 0.01 in0.3 mm
07:50 AM 44.8°F7.1°C 38.7°F3.7°C 79% 0.5 mph NNW0.8 kmh NNW 3.4 mph5.5 kmh 30.29 in1025.7 mb 0.00 in0.0 mm 0.00 in0.0 mm 0.01 in0.3 mm
08:00 AM 45.0°F7.2°C 38.8°F3.8°C 79% 2.6 mph NE4.2 kmh NE 4.2 mph6.8 kmh 30.30 in1026.1 mb 0.00 in0.0 mm 0.00 in0.0 mm 0.01 in0.3 mm
08:10 AM 45.0°F7.2°C 38.8°F3.8°C 79% 0.2 mph NW0.3 kmh NW 1.7 mph2.7 kmh 30.30 in1026.1 mb 0.00 in0.0 mm 0.00 in0.0 mm 0.01 in0.3 mm
08:20 AM 44.8°F7.1°C 38.3°F3.5°C 78% 0.7 mph S1.1 kmh S 2.5 mph4.0 kmh 30.31 in1026.4 mb 0.00 in0.0 mm 0.00 in0.0 mm 0.01 in0.3 mm
08:30 AM 44.8°F7.1°C 38.3°F3.5°C 78% 0.4 mph NW0.6 kmh NW 1.7 mph2.7 kmh 30.32 in1026.8 mb 0.00 in0.0 mm 0.00 in0.0 mm 0.01 in0.3 mm
08:40 AM 44.8°F7.1°C 38.3°F3.5°C 78% Calm Calm 1.7 mph2.7 kmh 30.32 in1026.8 mb 0.00 in0.0 mm 0.00 in0.0 mm 0.01 in0.3 mm
08:50 AM 45.0°F7.2°C 38.5°F3.6°C 78% 1.1 mph N1.8 kmh N 2.5 mph4.0 kmh 30.32 in1026.8 mb 0.00 in0.0 mm 0.00 in0.0 mm 0.01 in0.3 mm
09:00 AM 45.0°F7.2°C 38.5°F3.6°C 78% 1.5 mph SSE2.4 kmh SSE 4.2 mph6.8 kmh 30.32 in1026.8 mb 0.00 in0.0 mm 0.00 in0.0 mm 0.01 in0.3 mm
09:10 AM 45.0°F7.2°C 38.5°F3.6°C 78% 2.3 mph SW3.7 kmh SW 3.4 mph5.5 kmh 30.34 in1027.4 mb 0.00 in0.0 mm 0.00 in0.0 mm 0.01 in0.3 mm
09:20 AM 45.0°F7.2°C 38.5°F3.6°C 78% 1.1 mph SSE1.8 kmh SSE 3.4 mph5.5 kmh 30.34 in1027.4 mb 0.00 in0.0 mm 0.00 in0.0 mm 0.01 in0.3 mm
09:30 AM 45.1°F7.3°C 38.7°F3.7°C 78% 2.0 mph NE3.2 kmh NE 4.2 mph6.8 kmh 30.35 in1027.8 mb 0.00 in0.0 mm 0.00 in0.0 mm 0.01 in0.3 mm
09:40 AM 45.3°F7.4°C 38.9°F3.8°C 78% 1.5 mph W2.4 kmh W 3.4 mph5.5 kmh 30.35 in1027.8 mb 0.00 in0.0 mm 0.00 in0.0 mm 0.01 in0.3 mm
09:50 AM 45.3°F7.4°C 38.9°F3.8°C 78% 3.0 mph S4.8 kmh S 4.2 mph6.8 kmh 30.35 in1027.8 mb 0.00 in0.0 mm 0.00 in0.0 mm 0.01 in0.3 mm
10:00 AM 45.5°F7.5°C 39.0°F3.9°C 78% 2.3 mph S3.7 kmh S 3.4 mph5.5 kmh 30.35 in1027.8 mb 0.00 in0.0 mm 0.00 in0.0 mm 0.01 in0.3 mm
10:10 AM 45.5°F7.5°C 38.7°F3.7°C 77% 4.2 mph S6.8 kmh S 4.9 mph7.9 kmh 30.36 in1028.1 mb 0.00 in0.0 mm 0.00 in0.0 mm 0.01 in0.3 mm
10:20 AM 45.5°F7.5°C 38.7°F3.7°C 77% 3.8 mph SE6.1 kmh SE 4.9 mph7.9 kmh 30.37 in1028.4 mb 0.00 in0.0 mm 0.00 in0.0 mm 0.01 in0.3 mm
10:30 AM 45.5°F7.5°C 38.7°F3.7°C 77% 4.7 mph S7.6 kmh S 4.9 mph7.9 kmh 30.38 in1028.8 mb 0.00 in0.0 mm 0.00 in0.0 mm 0.01 in0.3 mm
10:40 AM 45.5°F7.5°C 38.7°F3.7°C 77% 4.9 mph S7.9 kmh S 5.9 mph9.5 kmh 30.38 in1028.8 mb 0.00 in0.0 mm 0.00 in0.0 mm 0.01 in0.3 mm
10:50 AM 45.3°F7.4°C 38.5°F3.6°C 77% 4.6 mph SSW7.4 kmh SSW 4.9 mph7.9 kmh 30.39 in1029.1 mb 0.00 in0.0 mm 0.00 in0.0 mm 0.01 in0.3 mm
11:00 AM 45.3°F7.4°C 38.5°F3.6°C 77% 4.4 mph SSW7.1 kmh SSW 6.6 mph10.6 kmh 30.38 in1028.8 mb 0.00 in0.0 mm 0.00 in0.0 mm 0.01 in0.3 mm
11:10 AM 45.3°F7.4°C 38.5°F3.6°C 77% 2.8 mph S4.5 kmh S 4.2 mph6.8 kmh 30.38 in1028.8 mb 0.00 in0.0 mm 0.00 in0.0 mm 0.01 in0.3 mm
11:20 AM 45.5°F7.5°C 38.7°F3.7°C 77% 2.6 mph S4.2 kmh S 6.6 mph10.6 kmh 30.37 in1028.4 mb 0.00 in0.0 mm 0.00 in0.0 mm 0.01 in0.3 mm
11:30 AM 45.5°F7.5°C 38.7°F3.7°C 77% 2.3 mph ENE3.7 kmh ENE 4.9 mph7.9 kmh 30.37 in1028.4 mb 0.00 in0.0 mm 0.00 in0.0 mm 0.01 in0.3 mm
11:40 AM 45.5°F7.5°C 39.0°F3.9°C 78% 2.2 mph SE3.5 kmh SE 4.9 mph7.9 kmh 30.38 in1028.8 mb 0.00 in0.0 mm 0.00 in0.0 mm 0.01 in0.3 mm
11:50 AM 45.5°F7.5°C 39.0°F3.9°C 78% 2.2 mph S3.5 kmh S 5.9 mph9.5 kmh 30.38 in1028.8 mb 0.00 in0.0 mm 0.00 in0.0 mm 0.01 in0.3 mm
12:00 PM 45.5°F7.5°C 39.0°F3.9°C 78% 4.5 mph S7.2 kmh S 6.6 mph10.6 kmh 30.38 in1028.8 mb 0.00 in0.0 mm 0.00 in0.0 mm 0.01 in0.3 mm
12:10 PM 45.5°F7.5°C 39.0°F3.9°C 78% 5.2 mph S8.4 kmh S 5.9 mph9.5 kmh 30.38 in1028.8 mb 0.00 in0.0 mm 0.00 in0.0 mm 0.01 in0.3 mm
12:20 PM 45.3°F7.4°C 38.9°F3.8°C 78% 5.1 mph SSE8.2 kmh SSE 6.6 mph10.6 kmh 30.38 in1028.8 mb 0.00 in0.0 mm 0.00 in0.0 mm 0.01 in0.3 mm
12:30 PM 45.3°F7.4°C 38.9°F3.8°C 78% 4.5 mph SSE7.2 kmh SSE 4.2 mph6.8 kmh 30.38 in1028.8 mb 0.00 in0.0 mm 0.00 in0.0 mm 0.01 in0.3 mm
12:40 PM 45.3°F7.4°C 38.9°F3.8°C 78% 4.1 mph S6.6 kmh S 4.9 mph7.9 kmh 30.39 in1029.1 mb 0.00 in0.0 mm 0.00 in0.0 mm 0.01 in0.3 mm
12:50 PM 45.3°F7.4°C 38.9°F3.8°C 78% 2.9 mph SE4.7 kmh SE 4.9 mph7.9 kmh 30.39 in1029.1 mb 0.00 in0.0 mm 0.00 in0.0 mm 0.01 in0.3 mm
01:00 PM 45.3°F7.4°C 38.9°F3.8°C 78% 4.2 mph SE6.8 kmh SE 5.9 mph9.5 kmh 30.38 in1028.8 mb 0.00 in0.0 mm 0.00 in0.0 mm 0.01 in0.3 mm
01:10 PM 45.3°F7.4°C 38.9°F3.8°C 78% 4.3 mph NNW6.9 kmh NNW 5.9 mph9.5 kmh 30.38 in1028.8 mb 0.00 in0.0 mm 0.00 in0.0 mm 0.01 in0.3 mm
01:20 PM 45.3°F7.4°C 38.9°F3.8°C 78% 3.4 mph S5.5 kmh S 5.9 mph9.5 kmh 30.37 in1028.4 mb 0.00 in0.0 mm 0.00 in0.0 mm 0.01 in0.3 mm
01:30 PM 45.3°F7.4°C 38.9°F3.8°C 78% 3.5 mph SE5.6 kmh SE 5.9 mph9.5 kmh 30.39 in1029.1 mb 0.00 in0.0 mm 0.00 in0.0 mm 0.01 in0.3 mm
01:40 PM 45.3°F7.4°C 39.2°F4.0°C 79% 5.1 mph SE8.2 kmh SE 4.9 mph7.9 kmh 30.39 in1029.1 mb 0.00 in0.0 mm 0.00 in0.0 mm 0.01 in0.3 mm
01:50 PM 45.1°F7.3°C 39.0°F3.9°C 79% 7.2 mph SSE11.6 kmh SSE 7.6 mph12.2 kmh 30.40 in1029.5 mb 0.00 in0.0 mm 0.00 in0.0 mm 0.01 in0.3 mm
02:00 PM 45.1°F7.3°C 39.0°F3.9°C 79% 9.6 mph S15.4 kmh S 9.1 mph14.6 kmh 30.41 in1029.8 mb 0.00 in0.0 mm 0.00 in0.0 mm 0.01 in0.3 mm
02:10 PM 45.1°F7.3°C 39.0°F3.9°C 79% 8.7 mph S14.0 kmh S 10.1 mph16.3 kmh 30.41 in1029.8 mb 0.00 in0.0 mm 0.00 in0.0 mm 0.01 in0.3 mm
02:20 PM 45.1°F7.3°C 39.0°F3.9°C 79% 6.4 mph S10.3 kmh S 6.6 mph10.6 kmh 30.42 in1030.1 mb 0.00 in0.0 mm 0.00 in0.0 mm 0.01 in0.3 mm
02:30 PM 45.1°F7.3°C 39.0°F3.9°C 79% 6.6 mph S10.6 kmh S 7.6 mph12.2 kmh 30.42 in1030.1 mb 0.00 in0.0 mm 0.00 in0.0 mm 0.01 in0.3 mm
02:40 PM 45.1°F7.3°C 39.0°F3.9°C 79% 5.5 mph S8.9 kmh S 5.9 mph9.5 kmh 30.42 in1030.1 mb 0.00 in0.0 mm 0.00 in0.0 mm 0.01 in0.3 mm
02:50 PM 45.1°F7.3°C 39.0°F3.9°C 79% 5.4 mph S8.7 kmh S 5.9 mph9.5 kmh 30.43 in1030.5 mb 0.00 in0.0 mm 0.00 in0.0 mm 0.01 in0.3 mm
03:00 PM 45.1°F7.3°C 39.0°F3.9°C 79% 4.0 mph SSE6.4 kmh SSE 4.2 mph6.8 kmh 30.42 in1030.1 mb 0.00 in0.0 mm 0.00 in0.0 mm 0.01 in0.3 mm
03:10 PM 45.1°F7.3°C 39.0°F3.9°C 79% 1.7 mph SE2.7 kmh SE 5.9 mph9.5 kmh 30.42 in1030.1 mb 0.00 in0.0 mm 0.00 in0.0 mm 0.01 in0.3 mm
03:20 PM 45.1°F7.3°C 39.0°F3.9°C 79% 1.4 mph S2.3 kmh S 4.2 mph6.8 kmh 30.42 in1030.1 mb 0.00 in0.0 mm 0.00 in0.0 mm 0.01 in0.3 mm
03:30 PM 45.0°F7.2°C 39.2°F4.0°C 80% 3.7 mph S6.0 kmh S 4.2 mph6.8 kmh 30.43 in1030.5 mb 0.00 in0.0 mm 0.00 in0.0 mm 0.01 in0.3 mm
03:40 PM 45.0°F7.2°C 39.2°F4.0°C 80% 0.8 mph SSE1.3 kmh SSE 2.5 mph4.0 kmh 30.43 in1030.5 mb 0.00 in0.0 mm 0.00 in0.0 mm 0.01 in0.3 mm
03:50 PM 45.0°F7.2°C 39.2°F4.0°C 80% 0.4 mph N0.6 kmh N 1.7 mph2.7 kmh 30.45 in1031.2 mb 0.00 in0.0 mm 0.00 in0.0 mm 0.01 in0.3 mm
04:00 PM 45.0°F7.2°C 39.2°F4.0°C 80% 3.4 mph S5.5 kmh S 4.9 mph7.9 kmh 30.45 in1031.2 mb 0.00 in0.0 mm 0.00 in0.0 mm 0.01 in0.3 mm
04:10 PM 45.0°F7.2°C 39.2°F4.0°C 80% 5.6 mph S9.0 kmh S 5.9 mph9.5 kmh 30.44 in1030.8 mb 0.00 in0.0 mm 0.00 in0.0 mm 0.01 in0.3 mm
04:20 PM 44.8°F7.1°C 39.0°F3.9°C 80% 5.0 mph S8.0 kmh S 5.9 mph9.5 kmh 30.44 in1030.8 mb 0.00 in0.0 mm 0.00 in0.0 mm 0.01 in0.3 mm
04:30 PM 44.8°F7.1°C 39.3°F4.1°C 81% 2.6 mph S4.2 kmh S 4.2 mph6.8 kmh 30.44 in1030.8 mb 0.00 in0.0 mm 0.00 in0.0 mm 0.01 in0.3 mm
04:40 PM 44.8°F7.1°C 39.3°F4.1°C 81% 2.0 mph SE3.2 kmh SE 3.4 mph5.5 kmh 30.44 in1030.8 mb 0.00 in0.0 mm 0.00 in0.0 mm 0.01 in0.3 mm
04:50 PM 44.8°F7.1°C 39.3°F4.1°C 81% 2.3 mph SE3.7 kmh SE 4.2 mph6.8 kmh 30.44 in1030.8 mb 0.00 in0.0 mm 0.00 in0.0 mm 0.01 in0.3 mm
05:00 PM 44.6°F7.0°C 39.1°F3.9°C 81% 2.6 mph SE4.2 kmh SE 4.2 mph6.8 kmh 30.45 in1031.2 mb 0.00 in0.0 mm 0.00 in0.0 mm 0.01 in0.3 mm
05:10 PM 44.6°F7.0°C 39.1°F3.9°C 81% 1.5 mph S2.4 kmh S 4.9 mph7.9 kmh 30.45 in1031.2 mb 0.00 in0.0 mm 0.00 in0.0 mm 0.01 in0.3 mm
05:20 PM 44.6°F7.0°C 39.1°F3.9°C 81% 4.0 mph SE6.4 kmh SE 4.9 mph7.9 kmh 30.45 in1031.2 mb 0.00 in0.0 mm 0.00 in0.0 mm 0.01 in0.3 mm
05:30 PM 44.6°F7.0°C 39.1°F3.9°C 81% 3.6 mph S5.8 kmh S 4.9 mph7.9 kmh 30.45 in1031.2 mb 0.00 in0.0 mm 0.00 in0.0 mm 0.01 in0.3 mm
05:40 PM 44.6°F7.0°C 39.1°F3.9°C 81% 4.0 mph S6.4 kmh S 4.2 mph6.8 kmh 30.46 in1031.5 mb 0.00 in0.0 mm 0.00 in0.0 mm 0.01 in0.3 mm
05:50 PM 44.8°F7.1°C 39.3°F4.1°C 81% 4.7 mph S7.6 kmh S 4.9 mph7.9 kmh 30.47 in1031.8 mb 0.00 in0.0 mm 0.00 in0.0 mm 0.01 in0.3 mm
06:00 PM 44.8°F7.1°C 39.3°F4.1°C 81% 4.0 mph S6.4 kmh S 5.9 mph9.5 kmh 30.47 in1031.8 mb 0.00 in0.0 mm 0.00 in0.0 mm 0.01 in0.3 mm
06:10 PM 44.6°F7.0°C 39.1°F3.9°C 81% 3.8 mph S6.1 kmh S 4.9 mph7.9 kmh 30.47 in1031.8 mb 0.00 in0.0 mm 0.00 in0.0 mm 0.01 in0.3 mm
06:20 PM 44.6°F7.0°C 39.1°F3.9°C 81% 2.7 mph SSE4.3 kmh SSE 4.2 mph6.8 kmh 30.47 in1031.8 mb 0.00 in0.0 mm 0.00 in0.0 mm 0.01 in0.3 mm
06:30 PM 44.6°F7.0°C 39.1°F3.9°C 81% 3.7 mph SSE6.0 kmh SSE 5.9 mph9.5 kmh 30.46 in1031.5 mb 0.00 in0.0 mm 0.00 in0.0 mm 0.01 in0.3 mm
06:40 PM 44.4°F6.9°C 40.8°F4.9°C 87% 3.2 mph S5.1 kmh S 4.2 mph6.8 kmh 30.46 in1031.5 mb 0.00 in0.0 mm 0.00 in0.0 mm 0.01 in0.3 mm
06:50 PM 44.4°F6.9°C 40.8°F4.9°C 87% 4.2 mph SSE6.8 kmh SSE 5.9 mph9.5 kmh 30.47 in1031.8 mb 0.00 in0.0 mm 0.00 in0.0 mm 0.01 in0.3 mm
07:00 PM 44.6°F7.0°C 39.4°F4.1°C 82% 5.9 mph SSE9.5 kmh SSE 7.6 mph12.2 kmh 30.48 in1032.2 mb 0.00 in0.0 mm 0.00 in0.0 mm 0.01 in0.3 mm
07:10 PM 44.8°F7.1°C 39.6°F4.2°C 82% 6.2 mph SE10.0 kmh SE 5.9 mph9.5 kmh 30.49 in1032.5 mb 0.00 in0.0 mm 0.00 in0.0 mm 0.01 in0.3 mm
07:20 PM 44.6°F7.0°C 39.4°F4.1°C 82% 4.6 mph S7.4 kmh S 4.9 mph7.9 kmh 30.48 in1032.2 mb 0.00 in0.0 mm 0.00 in0.0 mm 0.01 in0.3 mm
07:30 PM 44.4°F6.9°C 40.8°F4.9°C 87% 3.3 mph S5.3 kmh S 4.2 mph6.8 kmh 30.48 in1032.2 mb 0.00 in0.0 mm 0.00 in0.0 mm 0.01 in0.3 mm
07:40 PM 44.2°F6.8°C 40.6°F4.8°C 87% 3.5 mph SE5.6 kmh SE 5.9 mph9.5 kmh 30.48 in1032.2 mb 0.00 in0.0 mm 0.00 in0.0 mm 0.01 in0.3 mm
07:50 PM 44.1°F6.7°C 40.4°F4.7°C 87% 3.0 mph SE4.8 kmh SE 4.2 mph6.8 kmh 30.47 in1031.8 mb 0.00 in0.0 mm 0.00 in0.0 mm 0.01 in0.3 mm
08:00 PM 43.7°F6.5°C 40.1°F4.5°C 87% 2.0 mph SSW3.2 kmh SSW 4.2 mph6.8 kmh 30.48 in1032.2 mb 0.00 in0.0 mm 0.00 in0.0 mm 0.01 in0.3 mm
08:10 PM 43.5°F6.4°C 39.9°F4.4°C 87% 4.0 mph S6.4 kmh S 6.6 mph10.6 kmh 30.48 in1032.2 mb 0.00 in0.0 mm 0.00 in0.0 mm 0.01 in0.3 mm
08:20 PM 43.5°F6.4°C 39.9°F4.4°C 87% 3.0 mph S4.8 kmh S 4.2 mph6.8 kmh 30.49 in1032.5 mb 0.00 in0.0 mm 0.00 in0.0 mm 0.01 in0.3 mm
08:30 PM 43.7°F6.5°C 40.1°F4.5°C 87% 4.6 mph SE7.4 kmh SE 5.9 mph9.5 kmh 30.50 in1032.8 mb 0.00 in0.0 mm 0.00 in0.0 mm 0.01 in0.3 mm
08:40 PM 44.1°F6.7°C 40.4°F4.7°C 87% 5.2 mph SSE8.4 kmh SSE 5.9 mph9.5 kmh 30.49 in1032.5 mb 0.00 in0.0 mm 0.00 in0.0 mm 0.01 in0.3 mm
08:50 PM 44.2°F6.8°C 40.9°F4.9°C 88% 6.5 mph SSE10.5 kmh SSE 8.4 mph13.5 kmh 30.49 in1032.5 mb 0.00 in0.0 mm 0.00 in0.0 mm 0.01 in0.3 mm
09:00 PM 44.2°F6.8°C 40.9°F4.9°C 88% 6.6 mph SSE10.6 kmh SSE 7.6 mph12.2 kmh 30.49 in1032.5 mb 0.00 in0.0 mm 0.00 in0.0 mm 0.01 in0.3 mm
09:10 PM 44.4°F6.9°C 41.1°F5.1°C 88% 4.3 mph N6.9 kmh N 4.9 mph7.9 kmh 30.50 in1032.8 mb 0.00 in0.0 mm 0.00 in0.0 mm 0.01 in0.3 mm
09:20 PM 44.4°F6.9°C 41.1°F5.1°C 88% 3.9 mph SE6.3 kmh SE 4.9 mph7.9 kmh 30.50 in1032.8 mb 0.00 in0.0 mm 0.00 in0.0 mm 0.01 in0.3 mm
09:30 PM 44.4°F6.9°C 41.1°F5.1°C 88% 3.8 mph S6.1 kmh S 5.9 mph9.5 kmh 30.49 in1032.5 mb 0.00 in0.0 mm 0.00 in0.0 mm 0.01 in0.3 mm
09:40 PM 44.4°F6.9°C 41.1°F5.1°C 88% 7.4 mph SSE11.9 kmh SSE 7.6 mph12.2 kmh 30.50 in1032.8 mb 0.00 in0.0 mm 0.00 in0.0 mm 0.01 in0.3 mm
09:50 PM 44.6°F7.0°C 39.4°F4.1°C 82% 9.4 mph S15.1 kmh S 8.4 mph13.5 kmh 30.50 in1032.8 mb 0.00 in0.0 mm 0.00 in0.0 mm 0.01 in0.3 mm
10:00 PM 44.4°F6.9°C 41.1°F5.1°C 88% 7.2 mph SSE11.6 kmh SSE 7.6 mph12.2 kmh 30.50 in1032.8 mb 0.00 in0.0 mm 0.00 in0.0 mm 0.01 in0.3 mm
10:10 PM 44.4°F6.9°C 41.1°F5.1°C 88% 6.5 mph SSE10.5 kmh SSE 7.6 mph12.2 kmh 30.50 in1032.8 mb 0.00 in0.0 mm 0.00 in0.0 mm 0.01 in0.3 mm
10:20 PM 44.2°F6.8°C 40.9°F4.9°C 88% 5.7 mph S9.2 kmh S 7.6 mph12.2 kmh 30.49 in1032.5 mb 0.00 in0.0 mm 0.00 in0.0 mm 0.01 in0.3 mm
10:30 PM 44.1°F6.7°C 40.7°F4.8°C 88% 5.9 mph SSW9.5 kmh SSW 6.6 mph10.6 kmh 30.49 in1032.5 mb 0.00 in0.0 mm 0.00 in0.0 mm 0.01 in0.3 mm
10:40 PM 44.1°F6.7°C 40.7°F4.8°C 88% 7.0 mph S11.3 kmh S 7.6 mph12.2 kmh 30.49 in1032.5 mb 0.00 in0.0 mm 0.00 in0.0 mm 0.01 in0.3 mm
10:50 PM 44.1°F6.7°C 40.7°F4.8°C 88% 7.9 mph SSE12.7 kmh SSE 8.4 mph13.5 kmh 30.50 in1032.8 mb 0.00 in0.0 mm 0.00 in0.0 mm 0.01 in0.3 mm
11:00 PM 44.2°F6.8°C 40.9°F4.9°C 88% 9.0 mph S14.5 kmh S 9.1 mph14.6 kmh 30.50 in1032.8 mb 0.00 in0.0 mm 0.00 in0.0 mm 0.01 in0.3 mm
11:10 PM 44.1°F6.7°C 40.7°F4.8°C 88% 11.7 mph SE18.8 kmh SE 11.8 mph19.0 kmh 30.50 in1032.8 mb 0.00 in0.0 mm 0.00 in0.0 mm 0.01 in0.3 mm
11:20 PM 44.1°F6.7°C 40.7°F4.8°C 88% 11.9 mph SSE19.2 kmh SSE 11.8 mph19.0 kmh 30.50 in1032.8 mb 0.00 in0.0 mm 0.00 in0.0 mm 0.01 in0.3 mm
11:30 PM 44.2°F6.8°C 40.9°F4.9°C 88% 8.9 mph S14.3 kmh S 11.8 mph19.0 kmh 30.51 in1033.2 mb 0.00 in0.0 mm 0.00 in0.0 mm 0.01 in0.3 mm
11:40 PM 44.2°F6.8°C 40.9°F4.9°C 88% 8.7 mph S14.0 kmh S 10.1 mph16.3 kmh 30.51 in1033.2 mb 0.00 in0.0 mm 0.00 in0.0 mm 0.01 in0.3 mm
11:50 PM 44.1°F6.7°C 40.7°F4.8°C 88% 11.4 mph S18.3 kmh S 12.5 mph20.1 kmh 30.51 in1033.2 mb 0.00 in0.0 mm 0.00 in0.0 mm 0.01 in0.3 mm